CKJ4069 ZUUU-ZUXC
Flight info
| Callsign | CKJ4069 |
|---|---|
| Flight time | 0h 48m |
| Altitude | 21700 |
| Route | LUVEN G212 BOPTU |
| Aircraft | CRJ7/M-SADE3FGHIJ1J3J4J7P2RWXY/LB1 |
Departure
| Time | 2026-04-15 23:09 |
|---|---|
| Airport | Chengdu Shuangliu International Airport (ZUUU) |
Arrival
| Time | 2026-04-15 23:58 |
|---|---|
| Airport | Xichang Qingshan Airport (ZUXC) |
| Time | Latitude | Longitude | Altitude | Speed | Heading |
|---|---|---|---|---|---|
| 2026-04-15 22:53 | 30.55316 | 103.94533 | 1689 ft | 0 kts | 157° |
| 2026-04-15 23:05 | 30.55317 | 103.94553 | 1689 ft | 8 kts | 43° |
| 2026-04-15 23:05 | 30.55349 | 103.94534 | 1689 ft | 4 kts | 303° |
| 2026-04-15 23:06 | 30.55345 | 103.94484 | 1689 ft | 8 kts | 248° |
| 2026-04-15 23:06 | 30.55349 | 103.94417 | 1689 ft | 11 kts | 335° |
| 2026-04-15 23:06 | 30.55434 | 103.94375 | 1689 ft | 14 kts | 336° |
| 2026-04-15 23:06 | 30.55539 | 103.94321 | 1689 ft | 18 kts | 336° |
| 2026-04-15 23:07 | 30.55665 | 103.94260 | 1689 ft | 21 kts | 336° |
| 2026-04-15 23:07 | 30.55767 | 103.94208 | 1689 ft | 15 kts | 337° |
| 2026-04-15 23:07 | 30.55869 | 103.94160 | 1689 ft | 16 kts | 341° |
| 2026-04-15 23:07 | 30.55994 | 103.94157 | 1689 ft | 19 kts | 19° |
| 2026-04-15 23:08 | 30.56129 | 103.94222 | 1689 ft | 21 kts | 21° |
| 2026-04-15 23:08 | 30.56231 | 103.94267 | 1689 ft | 13 kts | 8° |
| 2026-04-15 23:08 | 30.56290 | 103.94192 | 1689 ft | 15 kts | 290° |
| 2026-04-15 23:08 | 30.56331 | 103.94078 | 1689 ft | 16 kts | 294° |
| 2026-04-15 23:09 | 30.56405 | 103.94029 | 1689 ft | 15 kts | 21° |
| 2026-04-15 23:09 | 30.56762 | 103.94192 | 1689 ft | 111 kts | 22° |
| 2026-04-15 23:09 | 30.57730 | 103.94629 | 2001 ft | 170 kts | 20° |
| 2026-04-15 23:09 | 30.58870 | 103.95122 | 2936 ft | 186 kts | 21° |
| 2026-04-15 23:10 | 30.60086 | 103.95692 | 3934 ft | 203 kts | 22° |
| 2026-04-15 23:10 | 30.61490 | 103.96301 | 4932 ft | 227 kts | 21° |
| 2026-04-15 23:10 | 30.62995 | 103.96985 | 5547 ft | 245 kts | 22° |
| 2026-04-15 23:10 | 30.64691 | 103.97787 | 6365 ft | 275 kts | 22° |
| 2026-04-15 23:11 | 30.66444 | 103.98611 | 7795 ft | 282 kts | 22° |
| 2026-04-15 23:11 | 30.68238 | 103.99464 | 9221 ft | 287 kts | 24° |
| 2026-04-15 23:11 | 30.69797 | 104.00835 | 10607 ft | 291 kts | 52° |
| 2026-04-15 23:11 | 30.70807 | 104.02869 | 11750 ft | 304 kts | 62° |
| 2026-04-15 23:12 | 30.71776 | 104.05088 | 12856 ft | 316 kts | 62° |
| 2026-04-15 23:12 | 30.72780 | 104.07352 | 14020 ft | 322 kts | 61° |
| 2026-04-15 23:12 | 30.73807 | 104.09641 | 15176 ft | 327 kts | 60° |
| 2026-04-15 23:12 | 30.74871 | 104.11980 | 16203 ft | 334 kts | 59° |
| 2026-04-15 23:13 | 30.75954 | 104.14359 | 17214 ft | 339 kts | 60° |
| 2026-04-15 23:13 | 30.76642 | 104.16988 | 18175 ft | 349 kts | 84° |
| 2026-04-15 23:13 | 30.76271 | 104.19819 | 19083 ft | 357 kts | 112° |
| 2026-04-15 23:13 | 30.74971 | 104.22283 | 19970 ft | 361 kts | 133° |
| 2026-04-15 23:14 | 30.73057 | 104.24091 | 20833 ft | 362 kts | 153° |
| 2026-04-15 23:14 | 30.70680 | 104.25105 | 21390 ft | 367 kts | 173° |
| 2026-04-15 23:14 | 30.68123 | 104.25069 | 21598 ft | 358 kts | 197° |
| 2026-04-15 23:14 | 30.65876 | 104.24001 | 21612 ft | 349 kts | 211° |
| 2026-04-15 23:15 | 30.63727 | 104.22676 | 21611 ft | 346 kts | 212° |
| 2026-04-15 23:15 | 30.61612 | 104.21384 | 21617 ft | 344 kts | 211° |
| 2026-04-15 23:15 | 30.59453 | 104.20064 | 21616 ft | 359 kts | 211° |
| 2026-04-15 23:15 | 30.57504 | 104.18870 | 21615 ft | 384 kts | 211° |
| 2026-04-15 23:16 | 30.55060 | 104.17375 | 21614 ft | 407 kts | 211° |
| 2026-04-15 23:16 | 30.52498 | 104.15813 | 21614 ft | 415 kts | 211° |
| 2026-04-15 23:16 | 30.49924 | 104.14247 | 21614 ft | 414 kts | 211° |
| 2026-04-15 23:16 | 30.47397 | 104.12733 | 21618 ft | 412 kts | 209° |
| 2026-04-15 23:17 | 30.44759 | 104.11414 | 21614 ft | 413 kts | 205° |
| 2026-04-15 23:17 | 30.42061 | 104.10162 | 21616 ft | 412 kts | 205° |
| 2026-04-15 23:17 | 30.39409 | 104.08927 | 21619 ft | 413 kts | 205° |
| 2026-04-15 23:17 | 30.36733 | 104.07681 | 21620 ft | 413 kts | 205° |
| 2026-04-15 23:18 | 30.34059 | 104.06436 | 21619 ft | 413 kts | 205° |
| 2026-04-15 23:18 | 30.31404 | 104.05201 | 21618 ft | 413 kts | 205° |
| 2026-04-15 23:18 | 30.28741 | 104.03967 | 21619 ft | 414 kts | 204° |
| 2026-04-15 23:18 | 30.25914 | 104.03123 | 21625 ft | 419 kts | 189° |
| 2026-04-15 23:19 | 30.23005 | 104.03078 | 21609 ft | 423 kts | 181° |
| 2026-04-15 23:19 | 30.20032 | 104.03207 | 21612 ft | 423 kts | 181° |
| 2026-04-15 23:19 | 30.17088 | 104.03324 | 21616 ft | 423 kts | 181° |
| 2026-04-15 23:19 | 30.14135 | 104.03441 | 21617 ft | 422 kts | 180° |
| 2026-04-15 23:20 | 30.11208 | 104.03556 | 21619 ft | 422 kts | 180° |
| 2026-04-15 23:20 | 30.08279 | 104.03670 | 21618 ft | 422 kts | 180° |
| 2026-04-15 23:20 | 30.05303 | 104.03786 | 21616 ft | 421 kts | 180° |
| 2026-04-15 23:20 | 30.02387 | 104.03900 | 21614 ft | 421 kts | 180° |
| 2026-04-15 23:21 | 29.99412 | 104.04015 | 21616 ft | 421 kts | 180° |
| 2026-04-15 23:21 | 29.96470 | 104.04128 | 21616 ft | 421 kts | 181° |
| 2026-04-15 23:21 | 29.93562 | 104.04240 | 21619 ft | 421 kts | 180° |
| 2026-04-15 23:21 | 29.90626 | 104.04353 | 21611 ft | 422 kts | 180° |
| 2026-04-15 23:22 | 29.87687 | 104.04465 | 21618 ft | 421 kts | 181° |
| 2026-04-15 23:22 | 29.84719 | 104.04578 | 21620 ft | 422 kts | 181° |
| 2026-04-15 23:22 | 29.81802 | 104.04690 | 21621 ft | 422 kts | 181° |
| 2026-04-15 23:22 | 29.78874 | 104.04801 | 21617 ft | 422 kts | 181° |
| 2026-04-15 23:23 | 29.75893 | 104.04795 | 21617 ft | 420 kts | 184° |
| 2026-04-15 23:23 | 29.72971 | 104.04681 | 21607 ft | 420 kts | 185° |
| 2026-04-15 23:23 | 29.70019 | 104.04566 | 21606 ft | 420 kts | 184° |
| 2026-04-15 23:23 | 29.67084 | 104.04452 | 21609 ft | 420 kts | 184° |
| 2026-04-15 23:24 | 29.64188 | 104.04340 | 21612 ft | 421 kts | 185° |
| 2026-04-15 23:24 | 29.61251 | 104.04226 | 21614 ft | 420 kts | 184° |
| 2026-04-15 23:24 | 29.58321 | 104.04164 | 21655 ft | 420 kts | 183° |
| 2026-04-15 23:24 | 29.55370 | 104.04202 | 21496 ft | 422 kts | 183° |
| 2026-04-15 23:25 | 29.52477 | 104.04091 | 21572 ft | 417 kts | 185° |
| 2026-04-15 23:25 | 29.49578 | 104.03982 | 21672 ft | 417 kts | 185° |
| 2026-04-15 23:25 | 29.46639 | 104.03832 | 21643 ft | 421 kts | 186° |
| 2026-04-15 23:25 | 29.43730 | 104.03680 | 21627 ft | 421 kts | 185° |
| 2026-04-15 23:26 | 29.40795 | 104.03534 | 21643 ft | 419 kts | 186° |
| 2026-04-15 23:26 | 29.37869 | 104.03415 | 21627 ft | 420 kts | 185° |
| 2026-04-15 23:26 | 29.34949 | 104.03442 | 21628 ft | 422 kts | 179° |
| 2026-04-15 23:26 | 29.32014 | 104.03777 | 21614 ft | 422 kts | 180° |
| 2026-04-15 23:27 | 29.29085 | 104.03809 | 21617 ft | 420 kts | 184° |
| 2026-04-15 23:27 | 29.26153 | 104.03771 | 21624 ft | 420 kts | 184° |
| 2026-04-15 23:27 | 29.23217 | 104.03725 | 21624 ft | 419 kts | 184° |
| 2026-04-15 23:27 | 29.20325 | 104.03679 | 21632 ft | 419 kts | 184° |
| 2026-04-15 23:28 | 29.17411 | 104.03667 | 21637 ft | 419 kts | 182° |
| 2026-04-15 23:28 | 29.14462 | 104.03694 | 21633 ft | 419 kts | 182° |
| 2026-04-15 23:28 | 29.11568 | 104.03723 | 21630 ft | 419 kts | 182° |
| 2026-04-15 23:28 | 29.08625 | 104.03754 | 21635 ft | 419 kts | 182° |
| 2026-04-15 23:29 | 29.05728 | 104.03786 | 21623 ft | 418 kts | 182° |
| 2026-04-15 23:29 | 29.02813 | 104.03818 | 21635 ft | 418 kts | 182° |
| 2026-04-15 23:29 | 28.99895 | 104.03853 | 21635 ft | 418 kts | 182° |
| 2026-04-15 23:29 | 28.97010 | 104.03887 | 21638 ft | 418 kts | 182° |
| 2026-04-15 23:30 | 28.94092 | 104.03923 | 21642 ft | 418 kts | 182° |
| 2026-04-15 23:30 | 28.91176 | 104.03960 | 21682 ft | 418 kts | 182° |
| 2026-04-15 23:30 | 28.88246 | 104.03996 | 21649 ft | 420 kts | 182° |
| 2026-04-15 23:30 | 28.85316 | 104.04034 | 21653 ft | 419 kts | 182° |
| 2026-04-15 23:31 | 28.82625 | 104.04068 | 21660 ft | 419 kts | 182° |
| 2026-04-15 23:31 | 28.79762 | 104.04105 | 21687 ft | 419 kts | 182° |
| 2026-04-15 23:31 | 28.77027 | 104.04142 | 21685 ft | 419 kts | 182° |
| 2026-04-15 23:31 | 28.74113 | 104.04181 | 21681 ft | 418 kts | 182° |
| 2026-04-15 23:32 | 28.71181 | 104.04221 | 21688 ft | 417 kts | 182° |
| 2026-04-15 23:32 | 28.68298 | 104.04260 | 21690 ft | 418 kts | 182° |
| 2026-04-15 23:32 | 28.65353 | 104.04300 | 21681 ft | 418 kts | 182° |
| 2026-04-15 23:32 | 28.62459 | 104.04146 | 21694 ft | 413 kts | 192° |
| 2026-04-15 23:33 | 28.59726 | 104.03199 | 21693 ft | 407 kts | 207° |
| 2026-04-15 23:33 | 28.57345 | 104.01472 | 21680 ft | 403 kts | 223° |
| 2026-04-15 23:33 | 28.55487 | 103.99170 | 21682 ft | 399 kts | 236° |
| 2026-04-15 23:33 | 28.54107 | 103.96435 | 21683 ft | 398 kts | 245° |
| 2026-04-15 23:34 | 28.52889 | 103.93601 | 21681 ft | 398 kts | 245° |
| 2026-04-15 23:34 | 28.51666 | 103.90778 | 21713 ft | 397 kts | 245° |
| 2026-04-15 23:34 | 28.50444 | 103.87960 | 21715 ft | 398 kts | 245° |
| 2026-04-15 23:36 | 28.43083 | 103.71147 | 21737 ft | 397 kts | 245° |
| 2026-04-15 23:36 | 28.41838 | 103.68319 | 21717 ft | 397 kts | 245° |
| 2026-04-15 23:36 | 28.40601 | 103.65511 | 21735 ft | 396 kts | 245° |
| 2026-04-15 23:36 | 28.39379 | 103.62736 | 21752 ft | 397 kts | 245° |
| 2026-04-15 23:37 | 28.38134 | 103.59914 | 21772 ft | 397 kts | 245° |
| 2026-04-15 23:37 | 28.36905 | 103.57126 | 21757 ft | 398 kts | 245° |
| 2026-04-15 23:37 | 28.35653 | 103.54289 | 21770 ft | 397 kts | 245° |
| 2026-04-15 23:37 | 28.34418 | 103.51492 | 21801 ft | 397 kts | 245° |
| 2026-04-15 23:38 | 28.33172 | 103.48671 | 21806 ft | 398 kts | 245° |
| 2026-04-15 23:38 | 28.31934 | 103.45869 | 21797 ft | 398 kts | 245° |
| 2026-04-15 23:38 | 28.30681 | 103.43037 | 21831 ft | 397 kts | 245° |
| 2026-04-15 23:38 | 28.29448 | 103.40251 | 21853 ft | 397 kts | 245° |
| 2026-04-15 23:39 | 28.28214 | 103.37465 | 21874 ft | 397 kts | 245° |
| 2026-04-15 23:39 | 28.26949 | 103.34609 | 21885 ft | 398 kts | 244° |
| 2026-04-15 23:39 | 28.25762 | 103.31930 | 21911 ft | 398 kts | 244° |
| 2026-04-15 23:39 | 28.24527 | 103.29147 | 21952 ft | 398 kts | 245° |
| 2026-04-15 23:40 | 28.23285 | 103.26348 | 21976 ft | 398 kts | 245° |
| 2026-04-15 23:40 | 28.22036 | 103.23537 | 21975 ft | 399 kts | 245° |
| 2026-04-15 23:40 | 28.20792 | 103.20739 | 21931 ft | 399 kts | 245° |
| 2026-04-15 23:40 | 28.19537 | 103.17920 | 21894 ft | 399 kts | 245° |
| 2026-04-15 23:41 | 28.18291 | 103.15120 | 21873 ft | 398 kts | 245° |
| 2026-04-15 23:41 | 28.17037 | 103.12305 | 21881 ft | 398 kts | 245° |
| 2026-04-15 23:41 | 28.15795 | 103.09519 | 21887 ft | 399 kts | 245° |
| 2026-04-15 23:41 | 28.14543 | 103.06712 | 21895 ft | 400 kts | 245° |
| 2026-04-15 23:42 | 28.13292 | 103.03909 | 21900 ft | 398 kts | 245° |
| 2026-04-15 23:42 | 28.12046 | 103.01122 | 21894 ft | 391 kts | 245° |
| 2026-04-15 23:42 | 28.10839 | 102.98424 | 21906 ft | 382 kts | 245° |
| 2026-04-15 23:42 | 28.09652 | 102.95770 | 21914 ft | 373 kts | 245° |
| 2026-04-15 23:43 | 28.08493 | 102.93182 | 21875 ft | 364 kts | 245° |
| 2026-04-15 23:43 | 28.07368 | 102.90672 | 21509 ft | 355 kts | 245° |
| 2026-04-15 23:43 | 28.06267 | 102.88217 | 21071 ft | 348 kts | 245° |
| 2026-04-15 23:43 | 28.05187 | 102.85809 | 20623 ft | 341 kts | 245° |
| 2026-04-15 23:44 | 28.04122 | 102.83437 | 20182 ft | 335 kts | 246° |
| 2026-04-15 23:44 | 28.03073 | 102.81101 | 19743 ft | 330 kts | 246° |
| 2026-04-15 23:44 | 28.02045 | 102.78814 | 19310 ft | 325 kts | 246° |
| 2026-04-15 23:44 | 28.01033 | 102.76562 | 18882 ft | 320 kts | 246° |
| 2026-04-15 23:45 | 28.00029 | 102.74333 | 18452 ft | 316 kts | 246° |
| 2026-04-15 23:45 | 27.99033 | 102.72122 | 18033 ft | 311 kts | 246° |
| 2026-04-15 23:45 | 27.98069 | 102.69985 | 17627 ft | 307 kts | 246° |
| 2026-04-15 23:45 | 27.97107 | 102.67851 | 17221 ft | 303 kts | 246° |
| 2026-04-15 23:46 | 27.96144 | 102.65717 | 16574 ft | 305 kts | 245° |
| 2026-04-15 23:46 | 27.95197 | 102.63620 | 16263 ft | 291 kts | 245° |
| 2026-04-15 23:46 | 27.94289 | 102.61611 | 15880 ft | 285 kts | 245° |
| 2026-04-15 23:46 | 27.93402 | 102.59647 | 15484 ft | 278 kts | 245° |
| 2026-04-15 23:47 | 27.92541 | 102.57739 | 15134 ft | 268 kts | 244° |
| 2026-04-15 23:47 | 27.91707 | 102.55890 | 14788 ft | 260 kts | 244° |
| 2026-04-15 23:47 | 27.90895 | 102.54089 | 14475 ft | 251 kts | 244° |
| 2026-04-15 23:47 | 27.90119 | 102.52371 | 14111 ft | 237 kts | 244° |
| 2026-04-15 23:48 | 27.89392 | 102.50761 | 13816 ft | 222 kts | 243° |
| 2026-04-15 23:48 | 27.88747 | 102.49334 | 13556 ft | 211 kts | 243° |
| 2026-04-15 23:48 | 27.88243 | 102.48189 | 13365 ft | 204 kts | 244° |
| 2026-04-15 23:48 | 27.87758 | 102.47111 | 13130 ft | 204 kts | 243° |
| 2026-04-15 23:49 | 27.87108 | 102.45684 | 12823 ft | 203 kts | 243° |
| 2026-04-15 23:49 | 27.86458 | 102.44254 | 12591 ft | 205 kts | 243° |
| 2026-04-15 23:49 | 27.85813 | 102.42831 | 12312 ft | 206 kts | 243° |
| 2026-04-15 23:49 | 27.85160 | 102.41394 | 12050 ft | 206 kts | 243° |
| 2026-04-15 23:50 | 27.84507 | 102.39955 | 11769 ft | 206 kts | 243° |
| 2026-04-15 23:50 | 27.83857 | 102.38523 | 11499 ft | 205 kts | 243° |
| 2026-04-15 23:50 | 27.83197 | 102.37070 | 11222 ft | 206 kts | 243° |
| 2026-04-15 23:51 | 27.81891 | 102.34197 | 10655 ft | 206 kts | 242° |
| 2026-04-15 23:51 | 27.81293 | 102.32880 | 10395 ft | 205 kts | 242° |
| 2026-04-15 23:51 | 27.80686 | 102.31541 | 10155 ft | 205 kts | 242° |
| 2026-04-15 23:51 | 27.80072 | 102.30089 | 9875 ft | 207 kts | 245° |
| 2026-04-15 23:52 | 27.79584 | 102.28570 | 9602 ft | 207 kts | 252° |
| 2026-04-15 23:52 | 27.79132 | 102.27020 | 9321 ft | 208 kts | 248° |
| 2026-04-15 23:52 | 27.78583 | 102.25509 | 9034 ft | 208 kts | 250° |
| 2026-04-15 23:52 | 27.78364 | 102.23904 | 8775 ft | 206 kts | 270° |
| 2026-04-15 23:53 | 27.78616 | 102.22367 | 8445 ft | 196 kts | 289° |
| 2026-04-15 23:53 | 27.79275 | 102.21008 | 8213 ft | 198 kts | 306° |
| 2026-04-15 23:53 | 27.80250 | 102.19952 | 7951 ft | 191 kts | 326° |
| 2026-04-15 23:53 | 27.81396 | 102.19325 | 7713 ft | 178 kts | 343° |
| 2026-04-15 23:54 | 27.82613 | 102.19093 | 7500 ft | 168 kts | 359° |
| 2026-04-15 23:54 | 27.83739 | 102.19040 | 7491 ft | 163 kts | 358° |
| 2026-04-15 23:54 | 27.84873 | 102.18976 | 7406 ft | 162 kts | 358° |
| 2026-04-15 23:54 | 27.86010 | 102.18925 | 7246 ft | 160 kts | 359° |
| 2026-04-15 23:55 | 27.87101 | 102.18881 | 7068 ft | 150 kts | 359° |
| 2026-04-15 23:55 | 27.88138 | 102.18842 | 6875 ft | 149 kts | 360° |
| 2026-04-15 23:55 | 27.89174 | 102.18803 | 6674 ft | 148 kts | 0° |
| 2026-04-15 23:55 | 27.90206 | 102.18751 | 6460 ft | 147 kts | 0° |
| 2026-04-15 23:56 | 27.91221 | 102.18708 | 6283 ft | 147 kts | 360° |
| 2026-04-15 23:56 | 27.92245 | 102.18671 | 6089 ft | 146 kts | 360° |
| 2026-04-15 23:56 | 27.93157 | 102.18636 | 5929 ft | 146 kts | 1° |
| 2026-04-15 23:56 | 27.94176 | 102.18599 | 5746 ft | 145 kts | 0° |
| 2026-04-15 23:57 | 27.95190 | 102.18565 | 5610 ft | 145 kts | 1° |
| 2026-04-15 23:57 | 27.96202 | 102.18532 | 5440 ft | 144 kts | 0° |
| 2026-04-15 23:57 | 27.97209 | 102.18493 | 5266 ft | 143 kts | 0° |
| 2026-04-15 23:57 | 27.98147 | 102.18460 | 5214 ft | 120 kts | 358° |
| 2026-04-15 23:58 | 27.98831 | 102.18433 | 5220 ft | 71 kts | 1° |
| 2026-04-15 23:58 | 27.99111 | 102.18423 | 5228 ft | 16 kts | 357° |
| 2026-04-15 23:58 | 27.99165 | 102.18460 | 5230 ft | 11 kts | 81° |
| 2026-04-15 23:58 | 27.99150 | 102.18555 | 5231 ft | 14 kts | 158° |
| 2026-04-15 23:59 | 27.99038 | 102.18560 | 5227 ft | 16 kts | 177° |
| 2026-04-15 23:59 | 27.98912 | 102.18565 | 5223 ft | 19 kts | 177° |
| 2026-04-15 23:59 | 27.98762 | 102.18572 | 5219 ft | 24 kts | 178° |
| 2026-04-15 23:59 | 27.98593 | 102.18578 | 5216 ft | 24 kts | 178° |
| 2026-04-16 00:00 | 27.98441 | 102.18584 | 5215 ft | 23 kts | 176° |
| 2026-04-16 00:00 | 27.98315 | 102.18588 | 5215 ft | 5 kts | 177° |
| 2026-04-16 00:00 | 27.98288 | 102.18616 | 5216 ft | 7 kts | 94° |
| 2026-04-16 00:00 | 27.98288 | 102.18658 | 5217 ft | 0 kts | 89° |
| 2026-04-16 00:01 | 27.98288 | 102.18660 | 5217 ft | 0 kts | 89° |
| 2026-04-16 00:03 | 27.98288 | 102.18659 | 5217 ft | 0 kts | 89° |